Time;durP1;ratioP1;P1;durP2;ratioP2;P2;SDS_P1;SDS_P2;PMS_P1;PMS_P2;Temp;Humidity;BMP_temperature;BMP_pressure;BME280_temperature;BME280_humidity;BME280_pressure;Samples;Min_cycle;Max_cycle;Signal;HPM_P1;HPM_P2
2022/09/30 00:01:16;;;;;;;2.30;2.10;;;;;;;21.10;45.51;100788.25;5037839;28;20565;-73
2022/09/30 00:03:42;;;;;;;2.85;2.25;;;;;;;21.10;45.83;100782.94;5021957;28;20059;-73
2022/09/30 00:06:08;;;;;;;2.45;2.17;;;;;;;21.09;45.81;100783.97;5038012;28;20475;-73
2022/09/30 00:08:34;;;;;;;2.30;2.08;;;;;;;21.10;45.67;100793.53;5018466;28;20044;-73
2022/09/30 00:11:06;;;;;;;2.28;2.08;;;;;;;21.06;45.68;100789.63;5034007;28;20594;-73
2022/09/30 00:13:36;;;;;;;2.75;2.08;;;;;;;21.08;45.81;100794.75;5033162;28;20041;-73
2022/09/30 00:16:03;;;;;;;3.72;2.20;;;;;;;21.10;45.74;100788.25;5037368;28;20033;-73
2022/09/30 00:18:29;;;;;;;3.53;2.10;;;;;;;21.10;45.51;100790.09;5037993;28;20033;-73
2022/09/30 00:20:55;;;;;;;2.20;1.90;;;;;;;21.09;45.74;100786.63;5017033;28;20057;-73
2022/09/30 00:23:22;;;;;;;2.13;1.90;;;;;;;21.09;45.49;100789.25;5027307;28;20037;-73
2022/09/30 00:25:48;;;;;;;2.78;2.15;;;;;;;21.10;45.50;100784.78;5034210;28;20731;-73
2022/09/30 00:28:14;;;;;;;3.28;2.10;;;;;;;21.12;45.55;100783.59;5036324;28;20470;-74
2022/09/30 00:30:40;;;;;;;2.72;1.98;;;;;;;21.10;45.51;100782.94;5035883;28;20044;-73
2022/09/30 00:33:05;;;;;;;2.33;1.80;;;;;;;21.11;45.61;100781.13;5018722;28;20749;-73
2022/09/30 00:35:31;;;;;;;1.80;1.70;;;;;;;21.08;45.49;100779.69;5038108;28;20754;-73
2022/09/30 00:37:56;;;;;;;2.38;2.08;;;;;;;21.08;45.62;100784.97;5036332;28;20041;-73
2022/09/30 00:40:22;;;;;;;2.42;2.03;;;;;;;21.10;45.52;100788.25;5042280;28;20048;-73
2022/09/30 00:42:48;;;;;;;3.15;1.98;;;;;;;21.09;45.52;100791.91;5039516;28;20048;-73
2022/09/30 00:45:16;;;;;;;2.42;2.00;;;;;;;21.09;45.44;100783.97;5043532;28;20486;-73
2022/09/30 00:48:07;;;;;;;2.38;2.10;;;;;;;21.11;45.46;100783.78;5038498;28;20144;-73
2022/09/30 00:50:44;;;;;;;2.58;2.10;;;;;;;21.06;45.64;100781.69;5039368;28;20029;-74
2022/09/30 00:53:15;;;;;;;2.78;1.80;;;;;;;21.12;45.55;100794.16;5042512;28;20086;-73
2022/09/30 00:55:50;;;;;;;1.90;1.70;;;;;;;21.11;45.64;100795.19;5037380;28;20047;-73
2022/09/30 00:58:27;;;;;;;2.40;1.90;;;;;;;21.12;45.66;100796.00;5041374;28;20522;-74
2022/09/30 01:00:54;;;;;;;2.70;2.05;;;;;;;21.08;45.44;100794.75;5039275;28;20060;-73
2022/09/30 01:03:21;;;;;;;2.30;1.58;;;;;;;21.08;45.73;100792.91;5037732;28;20060;-73
2022/09/30 01:05:49;;;;;;;4.97;1.85;;;;;;;21.11;45.22;100789.06;5038042;28;20489;-73
2022/09/30 01:08:17;;;;;;;2.00;1.60;;;;;;;21.11;45.52;100789.06;5018753;28;20737;-73
2022/09/30 01:10:43;;;;;;;2.65;1.98;;;;;;;21.07;45.54;100780.69;5016237;28;20041;-73
2022/09/30 01:13:09;;;;;;;2.92;1.88;;;;;;;21.11;45.28;100781.94;5031753;28;20155;-73
2022/09/30 01:16:05;;;;;;;2.63;1.80;;;;;;;21.12;45.56;100786.22;5039111;28;20041;-74
2022/09/30 01:19:02;;;;;;;2.00;1.83;;;;;;;21.10;45.40;100788.25;5033096;28;20091;-73
2022/09/30 01:21:46;;;;;;;2.40;1.90;;;;;;;21.11;45.53;100783.78;5002111;28;21883;-73
2022/09/30 01:24:56;;;;;;;2.53;1.73;;;;;;;21.10;45.17;100796.19;5039442;28;20040;-73
2022/09/30 01:27:28;;;;;;;1.95;1.75;;;;;;;21.10;45.36;100804.13;5035904;28;20053;-73
2022/09/30 01:30:08;;;;;;;1.80;1.70;;;;;;;21.10;45.46;100809.44;5038574;28;20418;-73
2022/09/30 01:32:58;;;;;;;1.88;1.73;;;;;;;21.11;45.55;100800.47;5035243;28;20569;-73
2022/09/30 01:36:00;;;;;;;2.17;1.73;;;;;;;21.12;45.43;100796.81;5036662;28;20041;-73
2022/09/30 01:38:38;;;;;;;1.55;1.40;;;;;;;21.08;45.23;100800.84;5036274;28;20540;-73
2022/09/30 01:41:07;;;;;;;2.92;2.03;;;;;;;21.09;45.27;100796.38;5036215;28;20067;-73
2022/09/30 01:44:05;;;;;;;2.25;1.70;;;;;;;21.09;45.57;100805.16;5038221;28;20039;-73
2022/09/30 01:46:43;;;;;;;2.72;1.85;;;;;;;21.09;45.22;100801.69;4974384;28;20144;-73
2022/09/30 01:49:30;;;;;;;2.55;2.00;;;;;;;21.09;45.38;100805.16;5036431;28;20036;-72
2022/09/30 01:52:07;;;;;;;2.95;1.80;;;;;;;21.08;45.45;100800.03;5040242;28;20037;-72
2022/09/30 01:54:54;;;;;;;2.65;1.88;;;;;;;21.04;45.40;100799.59;5039601;28;20025;-72
2022/09/30 01:57:27;;;;;;;8.32;2.10;;;;;;;21.06;45.58;100807.34;5035032;28;20033;-72
2022/09/30 02:00:02;;;;;;;2.05;1.80;;;;;;;21.09;45.35;100802.50;5034288;28;20055;-72
2022/09/30 02:03:04;;;;;;;2.90;1.83;;;;;;;21.08;45.35;100805.34;5034761;28;20036;-72
2022/09/30 02:05:46;;;;;;;1.50;1.35;;;;;;;21.05;45.59;100790.66;5036614;28;20068;-72
2022/09/30 02:08:38;;;;;;;1.77;1.63;;;;;;;21.09;45.13;100807.78;5038457;28;20050;-72
2022/09/30 02:11:14;;;;;;;2.42;1.55;;;;;;;21.08;45.16;100811.44;5035902;28;20052;-72
2022/09/30 02:13:53;;;;;;;1.60;1.50;;;;;;;21.07;45.46;100806.34;5031529;28;20044;-73
2022/09/30 02:16:26;;;;;;;2.05;1.67;;;;;;;21.07;45.46;100801.88;5033872;28;20036;-72
2022/09/30 02:18:59;;;;;;;2.03;1.67;;;;;;;21.06;45.22;100810.00;5030850;28;20061;-72
2022/09/30 02:21:31;;;;;;;1.95;1.75;;;;;;;21.02;45.17;100814.03;5036900;28;20129;-72
2022/09/30 02:24:01;;;;;;;3.28;1.80;;;;;;;21.05;45.43;100806.53;5039864;28;20037;-73
2022/09/30 02:26:36;;;;;;;1.60;1.30;;;;;;;21.06;45.05;100810.81;5033772;28;20509;-72
2022/09/30 02:29:12;;;;;;;2.13;1.88;;;;;;;21.06;45.52;100810.81;5017777;28;20546;-72
2022/09/30 02:31:40;;;;;;;1.55;1.45;;;;;;;21.05;45.45;100811.84;5039733;28;20044;-73
2022/09/30 02:34:15;;;;;;;1.75;1.65;;;;;;;21.05;45.41;100811.00;5046594;28;20036;-72
2022/09/30 02:37:07;;;;;;;2.00;1.67;;;;;;;21.05;45.29;100814.47;5032993;28;20029;-72
2022/09/30 02:39:42;;;;;;;1.63;1.52;;;;;;;21.06;45.33;100817.94;5034296;28;20155;-72
2022/09/30 02:42:20;;;;;;;1.90;1.70;;;;;;;20.97;45.22;100800.53;5038598;28;20028;-72
2022/09/30 02:44:48;;;;;;;2.17;1.70;;;;;;;21.08;45.22;100814.09;5036314;28;20060;-73
2022/09/30 02:47:45;;;;;;;1.63;1.52;;;;;;;21.05;45.39;100816.31;5033694;28;20041;-72
2022/09/30 02:50:34;;;;;;;1.35;1.25;;;;;;;21.02;45.35;100822.81;5039030;28;20040;-73
2022/09/30 02:53:33;;;;;;;2.65;1.67;;;;;;;21.05;45.47;100824.25;5038133;28;20059;-72
2022/09/30 02:56:30;;;;;;;1.43;1.30;;;;;;;21.01;45.19;100823.81;5035726;28;20028;-72
2022/09/30 02:58:56;;;;;;;1.63;1.50;;;;;;;21.03;45.32;100835.03;5040777;28;20033;-72
2022/09/30 03:01:23;;;;;;;2.15;1.60;;;;;;;21.04;45.35;100835.84;5034544;28;21330;-72
2022/09/30 03:03:54;;;;;;;1.83;1.63;;;;;;;21.04;45.33;100826.09;5039267;28;20704;-72
2022/09/30 03:06:20;;;;;;;1.60;1.50;;;;;;;21.04;45.42;100833.19;5040306;28;20033;-72
2022/09/30 03:08:46;;;;;;;1.95;1.45;;;;;;;21.03;45.40;100827.09;5031646;28;20033;-72
2022/09/30 03:11:27;;;;;;;1.50;1.40;;;;;;;21.06;45.35;100836.47;5037522;28;20485;-72
2022/09/30 03:14:26;;;;;;;2.35;1.35;;;;;;;21.03;45.25;100842.97;5019509;28;20101;-72
2022/09/30 03:17:10;;;;;;;2.03;1.70;;;;;;;21.02;45.13;100840.50;4994629;28;20057;-73
2022/09/30 03:19:58;;;;;;;1.40;1.30;;;;;;;21.03;45.35;100837.69;5036701;28;20064;-73
2022/09/30 03:22:50;;;;;;;2.03;1.67;;;;;;;21.03;45.37;100834.22;5040195;28;20559;-72
2022/09/30 03:25:34;;;;;;;1.67;1.58;;;;;;;21.03;45.33;100837.69;5036272;28;20033;-73
2022/09/30 03:28:26;;;;;;;1.30;1.20;;;;;;;21.01;45.29;100837.06;5036491;28;20735;-73
2022/09/30 03:31:07;;;;;;;1.40;1.30;;;;;;;21.01;45.13;100841.53;5032082;28;20079;-72
2022/09/30 03:33:53;;;;;;;1.73;1.60;;;;;;;21.03;45.13;100844.81;5039721;28;20040;-73
2022/09/30 03:36:43;;;;;;;2.05;1.60;;;;;;;21.01;45.13;100844.16;5039332;28;20561;-73
2022/09/30 03:39:22;;;;;;;1.55;1.30;;;;;;;21.01;45.28;100844.16;5034646;28;20612;-73
2022/09/30 03:42:09;;;;;;;1.60;1.40;;;;;;;21.01;45.32;100845.00;5032928;28;20063;-72
2022/09/30 03:44:51;;;;;;;1.40;1.30;;;;;;;21.01;45.08;100844.16;5038039;28;20495;-73
2022/09/30 03:47:31;;;;;;;1.40;1.30;;;;;;;21.00;45.13;100845.97;5021495;28;20040;-72
2022/09/30 03:49:59;;;;;;;1.85;1.58;;;;;;;21.00;45.35;100839.84;5038218;28;20426;-73
2022/09/30 03:52:28;;;;;;;1.67;1.40;;;;;;;20.99;45.07;100839.03;5036627;28;20120;-73
2022/09/30 03:54:57;;;;;;;1.47;1.37;;;;;;;21.00;45.20;100847.78;5038197;28;20037;-73
2022/09/30 03:57:29;;;;;;;1.77;1.40;;;;;;;20.99;45.04;100851.44;5036326;28;20039;-73
2022/09/30 03:59:58;;;;;;;1.65;1.35;;;;;;;20.95;45.25;100845.72;5036246;28;20041;-73
2022/09/30 04:02:25;;;;;;;1.63;1.37;;;;;;;20.93;45.34;100834.50;5034615;28;20037;-73
2022/09/30 04:04:50;;;;;;;1.38;1.27;;;;;;;20.94;45.07;100832.66;5036664;28;20037;-73
2022/09/30 04:07:17;;;;;;;1.60;1.50;;;;;;;20.97;45.37;100854.28;5035456;28;20082;-73
2022/09/30 04:09:42;;;;;;;1.70;1.50;;;;;;;20.98;45.33;100852.47;5028131;28;20051;-73
2022/09/30 04:12:08;;;;;;;1.77;1.58;;;;;;;20.91;44.85;100847.09;5039159;28;20037;-73
2022/09/30 04:14:34;;;;;;;1.38;1.25;;;;;;;20.97;45.28;100856.13;5036170;28;20048;-72
2022/09/30 04:17:01;;;;;;;1.33;1.20;;;;;;;20.91;45.10;100849.75;5035300;28;20049;-72
2022/09/30 04:19:26;;;;;;;1.40;1.30;;;;;;;20.97;45.16;100853.47;5032023;28;20041;-72
2022/09/30 04:21:53;;;;;;;1.92;1.45;;;;;;;20.99;45.13;100854.09;5017839;28;20051;-71
2022/09/30 04:24:21;;;;;;;1.33;1.20;;;;;;;20.98;45.30;100852.47;5018081;28;20045;-72
2022/09/30 04:26:46;;;;;;;1.55;1.40;;;;;;;20.98;45.25;100861.22;5012638;28;20037;-72
2022/09/30 04:29:12;;;;;;;1.75;1.17;;;;;;;20.99;44.92;100868.16;5012998;28;20115;-72
2022/09/30 04:31:37;;;;;;;1.42;1.33;;;;;;;20.97;45.06;100872.81;5009259;28;20034;-72
2022/09/30 04:34:03;;;;;;;1.27;1.17;;;;;;;20.95;45.21;100872.19;5010673;28;20053;-72
2022/09/30 04:36:29;;;;;;;1.38;1.25;;;;;;;20.96;45.00;100875.66;5017111;28;20124;-72
2022/09/30 04:38:54;;;;;;;1.27;1.17;;;;;;;20.91;45.26;100873.56;5013821;28;20072;-72
2022/09/30 04:41:23;;;;;;;1.40;1.30;;;;;;;20.96;45.04;100881.78;5016304;28;20175;-72
2022/09/30 04:43:49;;;;;;;1.65;1.35;;;;;;;20.94;45.18;100878.50;5017032;28;20048;-72
2022/09/30 04:46:16;;;;;;;1.15;1.05;;;;;;;20.93;45.21;100878.69;5013186;28;20057;-72
2022/09/30 04:48:44;;;;;;;1.50;1.40;;;;;;;20.96;44.97;100881.78;5015318;28;20041;-72
2022/09/30 04:51:14;;;;;;;1.42;1.33;;;;;;;20.96;44.82;100888.91;5013862;28;20045;-72
2022/09/30 04:53:43;;;;;;;1.33;1.23;;;;;;;20.93;44.91;100890.09;5020552;28;20052;-72
2022/09/30 04:56:09;;;;;;;1.52;1.42;;;;;;;20.93;45.11;100900.69;5011803;28;20076;-72
2022/09/30 04:58:35;;;;;;;1.30;1.20;;;;;;;20.95;45.04;100903.13;5017355;28;20128;-72
2022/09/30 05:01:07;;;;;;;1.35;1.25;;;;;;;20.95;45.06;100896.00;5015560;28;20428;-72
2022/09/30 05:03:34;;;;;;;1.75;1.65;;;;;;;20.95;44.93;100896.00;5012827;28;20047;-72
2022/09/30 05:05:59;;;;;;;1.85;1.50;;;;;;;20.93;44.85;100895.38;5015125;28;20052;-71
2022/09/30 05:08:25;;;;;;;1.80;1.50;;;;;;;20.90;45.03;100901.06;5011842;28;20757;-72
2022/09/30 05:11:00;;;;;;;2.08;1.45;;;;;;;20.91;45.18;100897.41;5012573;28;20033;-72
2022/09/30 05:13:30;;;;;;;2.00;1.50;;;;;;;20.90;44.86;100893.09;5015598;28;20033;-72
2022/09/30 05:15:55;;;;;;;;;;;;;;;20.93;44.80;100895.38;5016507;28;20060;-72
2022/09/30 05:18:21;;;;;;;2.13;1.50;;;;;;;20.92;44.81;100895.56;5016042;28;20000;-72
2022/09/30 05:20:50;;;;;;;2.20;1.80;;;;;;;20.90;44.67;100889.66;5013921;28;20602;-72
2022/09/30 05:23:17;;;;;;;2.22;1.80;;;;;;;20.93;44.96;100894.56;5018287;28;20125;-72
2022/09/30 05:25:43;;;;;;;4.15;1.85;;;;;;;20.92;44.91;100899.03;5018614;28;20753;-72
2022/09/30 05:28:09;;;;;;;2.38;1.58;;;;;;;20.90;45.06;100887.81;5016319;28;20082;-72
2022/09/30 05:30:34;;;;;;;2.65;1.83;;;;;;;20.91;44.94;100892.09;5017439;28;20057;-72
2022/09/30 05:33:00;;;;;;;2.35;1.70;;;;;;;20.88;45.15;100899.59;5017995;28;20025;-74
2022/09/30 05:35:25;;;;;;;1.98;1.52;;;;;;;20.89;44.88;100896.75;5017211;28;20033;-73
2022/09/30 05:37:51;;;;;;;2.47;1.73;;;;;;;20.88;45.12;100903.06;5016704;28;20100;-73
2022/09/30 05:40:16;;;;;;;2.35;1.88;;;;;;;20.90;45.10;100908.16;5021252;28;20037;-73
2022/09/30 05:42:43;;;;;;;3.45;1.63;;;;;;;20.87;44.84;100906.72;5021580;28;20547;-73
2022/09/30 05:45:09;;;;;;;2.92;1.80;;;;;;;20.80;44.82;100901.31;5013694;28;20369;-73
2022/09/30 05:47:35;;;;;;;2.97;1.75;;;;;;;20.90;44.97;100916.94;5014271;28;20045;-73
2022/09/30 05:50:00;;;;;;;2.75;1.73;;;;;;;20.85;44.79;100911.38;5014448;28;20057;-73
2022/09/30 05:52:27;;;;;;;1.77;1.67;;;;;;;20.90;44.85;100910.81;5020062;28;20034;-74
2022/09/30 05:54:53;;;;;;;2.53;1.90;;;;;;;20.90;44.68;100926.69;5015738;28;20038;-73
2022/09/30 05:57:19;;;;;;;3.22;1.70;;;;;;;20.87;44.92;100924.44;5016391;28;20041;-73
2022/09/30 05:59:46;;;;;;;2.63;2.00;;;;;;;20.87;44.81;100919.13;5019022;28;20045;-73
2022/09/30 06:02:12;;;;;;;1.92;1.70;;;;;;;20.82;44.84;100917.00;5013987;28;20120;-73
2022/09/30 06:04:38;;;;;;;2.05;1.77;;;;;;;20.85;44.93;100919.31;5024462;28;20041;-73
2022/09/30 06:07:05;;;;;;;2.75;1.80;;;;;;;20.85;45.05;100921.97;5017526;28;20045;-73
2022/09/30 06:09:30;;;;;;;2.45;1.90;;;;;;;20.86;44.77;100922.78;5015112;28;20521;-73
2022/09/30 06:11:57;;;;;;;2.22;1.90;;;;;;;20.83;44.87;100928.44;5016578;28;20029;-73
2022/09/30 06:14:23;;;;;;;2.85;2.20;;;;;;;20.85;44.79;100929.91;5016514;28;20057;-73
2022/09/30 06:16:49;;;;;;;2.45;1.80;;;;;;;20.87;44.83;100935.00;5020107;28;20052;-73
2022/09/30 06:19:15;;;;;;;2.95;1.98;;;;;;;20.85;44.62;100937.84;5015385;28;20045;-73
2022/09/30 06:21:40;;;;;;;3.50;2.15;;;;;;;20.86;44.81;100938.66;5017778;28;20095;-73
2022/09/30 06:24:11;;;;;;;2.03;1.70;;;;;;;20.82;45.23;100938.19;5020677;28;20127;-73
2022/09/30 06:26:38;;;;;;;1.77;1.52;;;;;;;20.78;45.05;100940.38;5016295;28;20041;-73
2022/09/30 06:29:04;;;;;;;1.73;1.45;;;;;;;20.80;44.88;100942.84;5016385;28;20830;-73
2022/09/30 06:31:30;;;;;;;2.38;1.67;;;;;;;20.84;44.91;100954.72;5015226;28;20052;-74
2022/09/30 06:33:56;;;;;;;1.58;1.10;;;;;;;20.79;44.83;100957.09;5018458;28;20041;-73
2022/09/30 06:36:22;;;;;;;2.38;1.52;;;;;;;20.81;44.80;100958.53;5015915;28;20029;-73
2022/09/30 06:38:50;;;;;;;2.75;1.77;;;;;;;20.82;44.83;100951.41;5016076;28;20507;-73
2022/09/30 06:41:16;;;;;;;2.30;1.58;;;;;;;20.77;44.97;100951.16;5014843;28;20034;-73
2022/09/30 06:43:41;;;;;;;2.90;1.80;;;;;;;20.76;45.05;100946.88;5016767;28;20041;-73
2022/09/30 06:46:08;;;;;;;1.98;1.50;;;;;;;20.81;44.87;100955.91;5013312;28;20038;-73
2022/09/30 06:48:33;;;;;;;1.58;1.48;;;;;;;20.79;44.77;100955.25;5016614;28;20052;-73
2022/09/30 06:50:59;;;;;;;1.98;1.77;;;;;;;20.78;44.84;100958.91;5012922;28;20160;-73
2022/09/30 06:53:26;;;;;;;1.75;1.35;;;;;;;20.75;44.74;100953.16;5001844;28;20064;-73
2022/09/30 06:55:56;;;;;;;1.75;1.58;;;;;;;20.76;44.83;100960.09;5011305;28;20091;-73
2022/09/30 06:58:23;;;;;;;1.80;1.52;;;;;;;20.80;44.59;100967.50;5013964;28;20037;-73
2022/09/30 07:01:03;;;;;;;1.83;1.40;;;;;;;20.79;44.89;100960.56;5013309;28;20029;-73
2022/09/30 07:03:31;;;;;;;2.42;1.60;;;;;;;20.82;44.62;100956.72;5013473;28;20522;-73
2022/09/30 07:05:59;;;;;;;2.75;1.90;;;;;;;20.82;44.79;100962.00;5012741;28;20851;-73
2022/09/30 07:08:30;;;;;;;2.00;1.67;;;;;;;20.78;44.68;100952.81;5011775;28;20037;-73
2022/09/30 07:11:14;;;;;;;1.35;1.23;;;;;;;20.85;44.47;100963.50;5011536;28;20120;-73
2022/09/30 07:13:42;;;;;;;1.38;1.27;;;;;;;20.86;44.52;100958.03;5007119;28;20042;-73
2022/09/30 07:16:09;;;;;;;2.03;1.45;;;;;;;20.86;44.83;100957.19;5014050;28;20399;-73
2022/09/30 07:18:35;;;;;;;1.63;1.52;;;;;;;20.88;44.71;100953.34;5015416;28;20091;-73
2022/09/30 07:21:00;;;;;;;1.30;1.15;;;;;;;20.90;44.70;100950.53;4998076;28;20036;-73
2022/09/30 07:23:26;;;;;;;1.88;1.40;;;;;;;20.93;44.63;100955.44;5011502;28;20053;-73
2022/09/30 07:25:55;;;;;;;1.65;1.50;;;;;;;20.93;44.70;100952.81;5011000;28;20041;-73
2022/09/30 07:28:30;;;;;;;1.17;1.10;;;;;;;20.92;44.57;100949.34;5009820;28;20042;-73
2022/09/30 07:30:57;;;;;;;1.33;1.23;;;;;;;20.98;44.35;100950.41;5012431;28;20037;-73
2022/09/30 07:33:27;;;;;;;1.52;1.40;;;;;;;20.99;44.36;100950.22;5011585;28;20039;-73
2022/09/30 07:35:57;;;;;;;3.42;1.60;;;;;;;20.98;44.60;100958.34;5013888;28;20124;-73
2022/09/30 07:38:26;;;;;;;1.58;1.48;;;;;;;20.97;44.50;100957.53;5011773;28;20071;-73
2022/09/30 07:40:57;;;;;;;1.40;1.30;;;;;;;20.97;44.53;100949.59;5016060;28;20029;-71
2022/09/30 07:43:33;;;;;;;1.52;1.40;;;;;;;21.01;44.63;100955.38;5016533;28;20033;-72
2022/09/30 07:46:08;;;;;;;1.35;1.25;;;;;;;21.01;44.44;100958.00;5012953;28;20124;-72
2022/09/30 07:48:49;;;;;;;1.40;1.30;;;;;;;21.04;44.59;100958.47;5018480;28;20836;-71
2022/09/30 07:51:35;;;;;;;1.15;1.05;;;;;;;21.01;44.44;100961.47;5015271;28;20128;-70
2022/09/30 07:54:05;;;;;;;1.40;1.08;;;;;;;21.06;44.62;100966.22;5014351;28;20395;-71
2022/09/30 07:56:31;;;;;;;1.48;1.38;;;;;;;21.06;44.62;100968.88;5015310;28;20048;-72
2022/09/30 07:59:00;;;;;;;1.40;1.30;;;;;;;21.08;44.41;100966.84;5020793;28;20049;-73
2022/09/30 08:01:27;;;;;;;1.65;1.52;;;;;;;21.09;44.32;100963.19;5016144;28;20103;-72
2022/09/30 08:03:55;;;;;;;1.40;1.02;;;;;;;21.10;44.36;100956.88;5017671;28;20036;-72
2022/09/30 08:06:28;;;;;;;1.65;1.50;;;;;;;21.13;44.28;100967.94;5012744;28;20052;-74
2022/09/30 08:08:55;;;;;;;1.58;1.45;;;;;;;21.18;43.99;100959.41;5014918;28;20033;-73
2022/09/30 08:11:21;;;;;;;2.55;1.58;;;;;;;21.24;43.81;100960.53;5019179;28;20030;-73
2022/09/30 08:13:55;;;;;;;1.45;1.30;;;;;;;21.33;43.60;100954.13;5017356;28;20041;-74
2022/09/30 08:16:23;;;;;;;1.70;1.10;;;;;;;21.41;43.86;100952.22;5000314;28;20038;-73
2022/09/30 08:18:53;;;;;;;1.63;1.40;;;;;;;21.52;43.58;100956.19;5010461;28;20040;-74
2022/09/30 08:21:19;;;;;;;2.17;1.67;;;;;;;21.56;43.18;100956.66;5021660;28;20041;-73
2022/09/30 08:23:44;;;;;;;1.38;1.27;;;;;;;21.59;43.08;100958.91;5020805;28;20100;-73
2022/09/30 08:26:11;;;;;;;1.95;1.45;;;;;;;21.71;42.91;100958.22;5018632;28;20052;-74
2022/09/30 08:28:37;;;;;;;1.50;1.13;;;;;;;21.72;42.82;100956.38;5013942;28;20467;-74
2022/09/30 08:31:13;;;;;;;2.03;1.20;;;;;;;21.77;42.69;100959.31;5014865;28;20819;-73
2022/09/30 08:33:42;;;;;;;3.28;1.45;;;;;;;21.74;42.61;100953.56;5018119;28;20079;-73
2022/09/30 08:36:22;;;;;;;1.45;1.35;;;;;;;21.81;42.54;100957.09;5019265;28;20040;-73
2022/09/30 08:38:48;;;;;;;1.80;1.30;;;;;;;21.84;42.37;100951.41;5018364;28;20045;-74
2022/09/30 08:41:38;;;;;;;1.75;1.38;;;;;;;21.85;42.30;100953.88;5003902;28;20048;-73
2022/09/30 08:44:31;;;;;;;1.67;1.33;;;;;;;21.97;42.30;100951.53;5019656;28;20618;-74
2022/09/30 08:47:34;;;;;;;1.63;1.27;;;;;;;21.95;42.39;100951.72;5017758;28;20038;-73
2022/09/30 08:50:05;;;;;;;1.83;1.45;;;;;;;21.95;42.56;100957.03;5012917;28;20030;-73
2022/09/30 08:52:35;;;;;;;2.00;1.65;;;;;;;22.03;42.55;100956.06;5021302;28;20041;-71
2022/09/30 08:55:00;;;;;;;;;;;;;;;21.96;42.55;100950.72;5017613;28;20491;-73
2022/09/30 08:57:35;;;;;;;1.95;1.50;;;;;;;21.99;42.46;100939.72;5011388;28;20068;-73
2022/09/30 09:00:07;;;;;;;2.45;1.38;;;;;;;22.05;42.87;100948.75;5019076;28;20398;-72
2022/09/30 09:02:43;;;;;;;2.42;1.13;;;;;;;22.06;42.49;100947.75;5017186;28;20422;-73
2022/09/30 09:05:23;;;;;;;2.13;1.40;;;;;;;22.08;42.69;100950.22;5018523;28;20467;-73
2022/09/30 09:08:14;;;;;;;2.08;1.67;;;;;;;22.14;42.45;100952.94;4969578;28;20584;-67
2022/09/30 09:11:29;;;;;;;2.92;1.70;;;;;;;22.30;42.69;100950.00;5007924;28;20114;-68
2022/09/30 09:14:35;;;;;;;2.20;2.00;;;;;;;22.40;42.59;100948.81;5014473;28;20083;-70
2022/09/30 09:17:25;;;;;;;3.97;1.83;;;;;;;22.52;42.54;100953.41;5012165;28;20045;-69
2022/09/30 09:20:17;;;;;;;5.63;1.88;;;;;;;22.61;42.50;100960.19;5017794;28;20075;-69
2022/09/30 09:22:47;;;;;;;3.60;1.90;;;;;;;22.64;42.41;100956.34;5005648;28;20500;-70
2022/09/30 09:25:28;;;;;;;2.03;1.83;;;;;;;22.43;43.02;100956.41;4993446;28;20049;-78
2022/09/30 09:27:59;;;;;;;4.25;1.85;;;;;;;22.57;42.53;100944.84;5001836;28;20030;-76
2022/09/30 09:30:34;;;;;;;3.03;1.80;;;;;;;22.71;42.30;100959.03;5009630;28;20041;-69
2022/09/30 09:33:17;;;;;;;4.90;1.83;;;;;;;22.57;42.85;100958.13;5019284;28;20044;-72
2022/09/30 09:35:52;;;;;;;2.28;1.70;;;;;;;22.63;42.83;100953.91;5011210;28;20049;-72
2022/09/30 09:38:34;;;;;;;1.88;1.70;;;;;;;22.70;42.45;100954.75;5019068;28;20045;-72
2022/09/30 09:41:18;;;;;;;7.05;2.03;;;;;;;22.64;42.66;100955.53;4978950;28;20048;-72
2022/09/30 09:44:10;;;;;;;2.72;1.52;;;;;;;22.60;43.10;100966.50;5011899;28;20108;-71
2022/09/30 09:46:44;;;;;;;2.17;1.42;;;;;;;22.63;43.05;100970.66;5012180;28;20416;-72
2022/09/30 09:49:14;;;;;;;1.67;1.33;;;;;;;22.59;42.94;100970.19;5015530;28;20037;-72
2022/09/30 09:51:46;;;;;;;1.30;1.20;;;;;;;22.65;43.25;100968.59;5017279;28;20043;-71
2022/09/30 09:54:17;;;;;;;2.85;1.63;;;;;;;22.72;42.97;100976.59;5013729;28;20037;-72
2022/09/30 09:56:43;;;;;;;1.45;1.35;;;;;;;22.67;43.27;100973.72;5003424;28;20070;-73
2022/09/30 09:59:16;;;;;;;1.65;1.55;;;;;;;22.64;42.96;100979.44;5003018;28;20343;-72
2022/09/30 10:01:46;;;;;;;1.52;1.42;;;;;;;22.60;43.18;100981.63;4995895;28;20044;-73
2022/09/30 10:04:25;;;;;;;1.40;1.30;;;;;;;22.60;43.20;100968.34;5012204;28;20088;-72
2022/09/30 10:07:11;;;;;;;1.80;1.33;;;;;;;22.57;43.21;100966.91;5016081;28;20077;-72
2022/09/30 10:09:39;;;;;;;1.77;1.35;;;;;;;22.56;43.48;100961.81;5014451;28;20440;-72
2022/09/30 10:12:04;;;;;;;1.42;1.33;;;;;;;22.56;43.57;100964.44;4995041;28;20029;-73
2022/09/30 10:14:49;;;;;;;2.58;1.40;;;;;;;22.49;43.85;100960.94;4987784;28;20052;-72
2022/09/30 10:17:32;;;;;;;2.03;1.42;;;;;;;22.53;43.43;100965.66;5009452;28;20049;-73
2022/09/30 10:20:13;;;;;;;2.03;1.52;;;;;;;22.46;43.66;100954.19;5014953;28;20037;-72
2022/09/30 10:22:39;;;;;;;2.38;1.70;;;;;;;22.45;43.62;100949.09;5014538;28;20045;-73
2022/09/30 10:25:09;;;;;;;1.50;1.40;;;;;;;22.40;43.92;100952.31;5013668;28;20040;-72
2022/09/30 10:27:35;;;;;;;1.33;1.23;;;;;;;22.40;43.92;100947.00;5014870;28;20037;-71
2022/09/30 10:30:02;;;;;;;3.10;1.50;;;;;;;22.35;44.08;100951.25;4987606;28;20037;-71
2022/09/30 10:32:28;;;;;;;1.52;1.42;;;;;;;22.36;43.83;100952.88;5012296;28;20072;-72
2022/09/30 10:35:02;;;;;;;1.25;1.15;;;;;;;22.35;43.78;100949.41;5016111;28;20088;-73
2022/09/30 10:37:28;;;;;;;1.88;1.42;;;;;;;22.34;44.10;100946.97;5017931;28;20048;-73
2022/09/30 10:40:00;;;;;;;1.67;1.42;;;;;;;22.31;43.81;100938.38;5012636;28;20045;-72
2022/09/30 10:42:30;;;;;;;3.03;1.35;;;;;;;22.30;44.22;100946.53;5011798;28;20368;-73
2022/09/30 10:44:57;;;;;;;1.40;1.30;;;;;;;22.30;43.87;100942.03;5005197;28;20471;-72
2022/09/30 10:47:25;;;;;;;1.42;1.25;;;;;;;22.28;44.03;100938.75;5008664;28;20045;-73
2022/09/30 10:50:03;;;;;;;1.40;1.30;;;;;;;22.28;43.91;100944.06;5017936;28;20530;-72
2022/09/30 10:52:36;;;;;;;1.67;1.13;;;;;;;22.26;44.39;100940.78;5016923;28;20053;-73
2022/09/30 10:55:28;;;;;;;1.35;1.25;;;;;;;22.28;44.18;100933.47;5017208;28;20456;-73
2022/09/30 10:58:22;;;;;;;1.23;1.10;;;;;;;22.27;44.35;100928.34;5018608;28;20769;-73
2022/09/30 11:00:55;;;;;;;1.48;1.38;;;;;;;22.26;44.39;100924.88;5009942;28;20045;-73
2022/09/30 11:03:29;;;;;;;2.22;0.98;;;;;;;22.26;44.13;100921.38;4996638;28;20045;-72
2022/09/30 11:05:57;;;;;;;1.08;0.95;;;;;;;22.25;44.03;100914.44;5010367;28;20046;-73
2022/09/30 11:08:35;;;;;;;1.10;1.00;;;;;;;22.24;44.01;100918.09;5010108;28;20286;-74
2022/09/30 11:11:21;;;;;;;1.48;1.00;;;;;;;22.25;44.22;100917.09;5011072;28;20509;-74
2022/09/30 11:13:56;;;;;;;1.33;1.20;;;;;;;22.25;44.22;100931.16;5009373;28;20387;-73
2022/09/30 11:16:53;;;;;;;0.90;0.82;;;;;;;22.25;44.17;100923.22;5011710;28;20158;-76
2022/09/30 11:19:22;;;;;;;1.05;0.95;;;;;;;22.25;44.45;100919.75;4999458;28;20043;-74
2022/09/30 11:21:56;;;;;;;1.33;1.02;;;;;;;22.22;44.24;100915.66;4997760;28;20037;-74
2022/09/30 11:24:39;;;;;;;2.30;1.25;;;;;;;22.24;44.17;100920.75;5016831;28;20050;-73
2022/09/30 11:27:20;;;;;;;0.73;0.73;;;;;;;22.23;44.21;100916.47;5014373;28;20502;-74
2022/09/30 11:30:10;;;;;;;1.33;1.05;;;;;;;22.24;44.08;100920.75;5016489;28;20067;-74
2022/09/30 11:33:10;;;;;;;2.33;1.05;;;;;;;22.24;44.31;100916.25;5008829;28;20256;-75
2022/09/30 11:35:58;;;;;;;1.77;1.10;;;;;;;22.23;44.40;100911.97;4974793;28;20069;-75
2022/09/30 11:38:45;;;;;;;1.40;1.15;;;;;;;22.22;44.34;100910.34;5010937;28;20057;-75
2022/09/30 11:41:21;;;;;;;0.85;0.85;;;;;;;22.24;44.22;100907.50;5010606;28;20038;-75
2022/09/30 11:43:58;;;;;;;0.93;0.93;;;;;;;22.22;44.29;100912.19;5007226;28;20102;-75
2022/09/30 11:46:43;;;;;;;0.80;0.70;;;;;;;22.24;44.47;100908.31;5011557;28;20471;-74
2022/09/30 11:49:39;;;;;;;0.90;0.82;;;;;;;22.23;44.30;100906.66;5008139;28;20445;-72
2022/09/30 11:52:07;;;;;;;1.33;1.00;;;;;;;22.27;44.42;100904.47;4961034;28;20052;-68
2022/09/30 11:54:35;;;;;;;1.00;1.00;;;;;;;22.25;44.28;100902.00;5005259;28;20072;-68
2022/09/30 11:57:19;;;;;;;1.40;1.13;;;;;;;22.25;44.55;100896.69;5000308;28;20088;-67